createdAt,value
2019-04-14T00:01:17.305Z,100624.09
2019-04-14T00:04:03.603Z,100620.13
2019-04-14T00:06:35.152Z,100629.06
2019-04-14T00:09:07.480Z,100624.51
2019-04-14T00:11:41.351Z,100626.10
2019-04-14T00:14:11.798Z,100620.45
2019-04-14T00:16:42.373Z,100621.19
2019-04-14T00:19:12.743Z,100616.54
2019-04-14T00:21:43.283Z,100617.04
2019-04-14T00:24:13.851Z,100614.72
2019-04-14T00:26:44.453Z,100612.58
2019-04-14T00:29:15.187Z,100608.47
2019-04-14T00:31:45.553Z,100604.36
2019-04-14T00:34:24.776Z,100607.71
2019-04-14T00:37:05.602Z,100601.95
2019-04-14T00:39:38.004Z,100605.31
2019-04-14T00:42:38.748Z,100607.83
2019-04-14T00:45:39.667Z,100605.12
2019-04-14T00:48:09.275Z,100604.73
2019-04-14T00:50:32.362Z,100607.06
2019-04-14T00:53:01.620Z,100602.59
2019-04-14T00:55:31.484Z,100607.41
2019-04-14T00:58:01.641Z,100604.09
2019-04-14T01:00:32.035Z,100603.75
2019-04-14T01:03:02.559Z,100609.27
2019-04-14T01:05:34.394Z,100605.80
2019-04-14T01:08:03.171Z,100610.19
2019-04-14T01:10:32.426Z,100603.93
2019-04-14T01:13:02.698Z,100606.10
2019-04-14T01:15:44.819Z,100602.66
2019-04-14T01:18:03.613Z,100608.64
2019-04-14T01:20:33.938Z,100607.31
2019-04-14T01:23:04.158Z,100609.14
2019-04-14T01:25:34.651Z,100606.94
2019-04-14T01:28:04.688Z,100605.23
2019-04-14T01:30:35.030Z,100611.48
2019-04-14T01:33:05.461Z,100608.52
2019-04-14T01:35:35.740Z,100609.31
2019-04-14T01:38:05.980Z,100608.52
2019-04-14T01:40:35.922Z,100610.84
2019-04-14T01:43:05.985Z,100605.80
2019-04-14T01:45:35.928Z,100611.72
2019-04-14T01:48:05.997Z,100610.88
2019-04-14T01:50:43.270Z,100610.00
2019-04-14T01:53:18.949Z,100616.47
2019-04-14T01:55:57.731Z,100613.42
2019-04-14T01:58:31.647Z,100614.60
2019-04-14T02:01:20.218Z,100614.22
2019-04-14T02:03:49.864Z,100615.39
2019-04-14T02:06:20.192Z,100618.56
2019-04-14T02:08:50.141Z,100614.22
2019-04-14T02:11:20.574Z,100623.45
2019-04-14T02:13:50.868Z,100624.74
2019-04-14T02:16:30.293Z,100625.05
2019-04-14T02:18:53.444Z,100623.41
2019-04-14T02:21:22.168Z,100619.56
2019-04-14T02:23:51.885Z,100618.38
2019-04-14T02:26:22.013Z,100618.56
2019-04-14T02:28:52.742Z,100620.20
2019-04-14T02:31:48.503Z,100613.52
2019-04-14T02:34:26.001Z,100608.14
2019-04-14T02:39:24.244Z,100610.52
2019-04-14T02:42:00.275Z,100606.94
2019-04-14T02:46:57.860Z,100618.41
2019-04-14T02:49:28.699Z,100625.59
2019-04-14T02:51:58.571Z,100622.27
2019-04-14T02:54:36.927Z,100623.56
2019-04-14T02:57:01.300Z,100628.56
2019-04-14T02:59:27.191Z,100628.56
2019-04-14T03:02:20.076Z,100629.20
2019-04-14T03:04:26.102Z,100625.99
2019-04-14T03:07:05.507Z,100619.47
2019-04-14T03:12:07.099Z,100626.55
2019-04-14T03:14:39.769Z,100617.55
2019-04-14T03:20:13.712Z,100613.73
2019-04-14T03:25:30.111Z,100617.05
2019-04-14T03:28:46.045Z,100624.56
2019-04-14T03:34:17.966Z,100629.33
2019-04-14T03:37:37.688Z,100622.20
2019-04-14T03:39:00.000Z,100627.09
2019-04-14T03:41:24.077Z,100621.46
2019-04-14T03:43:46.035Z,100623.09
2019-04-14T03:46:25.489Z,100626.41
2019-04-14T03:51:34.726Z,100627.69
2019-04-14T03:54:03.742Z,100629.38
2019-04-14T03:56:36.372Z,100634.03
2019-04-14T03:59:06.436Z,100629.38
2019-04-14T04:01:36.752Z,100629.06
2019-04-14T04:04:07.410Z,100635.16
2019-04-14T04:06:37.718Z,100635.61
2019-04-14T04:09:08.424Z,100640.75
2019-04-14T04:11:38.925Z,100633.17
2019-04-14T04:14:09.526Z,100635.70
2019-04-14T04:17:04.027Z,100633.87
2019-04-14T04:20:04.579Z,100627.84
2019-04-14T04:22:56.563Z,100638.23
2019-04-14T04:25:44.863Z,100637.66
2019-04-14T04:28:51.840Z,100639.50
2019-04-14T04:31:40.082Z,100631.58
2019-04-14T04:34:14.402Z,100637.92
2019-04-14T04:36:59.964Z,100636.31
2019-04-14T04:39:36.404Z,100631.33
2019-04-14T04:42:06.875Z,100639.49
2019-04-14T04:44:37.757Z,100644.28
2019-04-14T04:47:07.753Z,100642.50
2019-04-14T04:49:38.229Z,100648.84
2019-04-14T04:52:11.092Z,100646.19
2019-04-14T04:54:38.594Z,100638.71
2019-04-14T04:57:08.875Z,100641.55
2019-04-14T04:59:38.838Z,100644.41
2019-04-14T05:02:09.058Z,100641.69
2019-04-14T05:04:39.429Z,100645.10
2019-04-14T05:07:09.803Z,100647.13
2019-04-14T05:09:58.415Z,100646.09
2019-04-14T05:12:45.677Z,100649.70
2019-04-14T05:15:40.393Z,100652.36
2019-04-14T05:18:15.608Z,100641.88
2019-04-14T05:20:44.856Z,100654.70
2019-04-14T05:23:14.775Z,100656.33
2019-04-14T05:25:45.119Z,100650.28
2019-04-14T05:28:15.460Z,100657.27
2019-04-14T05:30:45.816Z,100656.18
2019-04-14T05:33:16.331Z,100650.35
2019-04-14T05:38:18.966Z,100667.08
2019-04-14T05:40:49.566Z,100656.09
2019-04-14T05:43:30.436Z,100655.70
2019-04-14T05:45:50.250Z,100656.18
2019-04-14T05:48:20.431Z,100654.36
2019-04-14T05:50:49.668Z,100653.31
2019-04-14T05:53:19.654Z,100659.50
2019-04-14T05:55:48.945Z,100651.77
2019-04-14T05:58:18.611Z,100653.01
2019-04-14T06:00:50.109Z,100661.53
2019-04-14T06:03:19.237Z,100670.14
2019-04-14T06:05:48.486Z,100661.86
2019-04-14T06:08:17.758Z,100663.93
2019-04-14T06:10:47.010Z,100670.70
2019-04-14T06:13:16.509Z,100668.17
2019-04-14T06:15:45.782Z,100672.86
2019-04-14T06:18:15.005Z,100674.45
2019-04-14T06:20:44.598Z,100675.42
2019-04-14T06:23:13.840Z,100683.78
2019-04-14T06:25:43.110Z,100689.05
2019-04-14T06:28:12.386Z,100688.16
2019-04-14T06:30:59.222Z,100687.87
2019-04-14T06:33:34.625Z,100689.49
2019-04-14T06:36:37.967Z,100684.91
2019-04-14T06:39:14.296Z,100685.05
2019-04-14T06:41:43.518Z,100685.69
2019-04-14T06:44:12.766Z,100685.94
2019-04-14T06:46:42.043Z,100688.88
2019-04-14T06:49:11.287Z,100693.11
2019-04-14T06:51:40.532Z,100690.70
2019-04-14T06:54:09.763Z,100695.28
2019-04-14T06:56:39.023Z,100700.84
2019-04-14T06:59:08.536Z,100696.52
2019-04-14T07:01:39.074Z,100697.70
2019-04-14T07:04:08.370Z,100698.84
2019-04-14T07:06:37.629Z,100701.47
2019-04-14T07:09:07.412Z,100702.73
2019-04-14T07:11:36.675Z,100706.23
2019-04-14T07:14:06.173Z,100701.08
2019-04-14T07:16:36.049Z,100697.91
2019-04-14T07:19:05.291Z,100700.59
2019-04-14T07:21:34.926Z,100705.99
2019-04-14T07:24:04.322Z,100706.02
2019-04-14T07:26:33.591Z,100704.94
2019-04-14T07:29:02.870Z,100704.05
2019-04-14T07:31:54.604Z,100703.14
2019-04-14T07:34:41.485Z,100711.05
2019-04-14T07:37:41.856Z,100721.05
2019-04-14T07:40:30.013Z,100719.58
2019-04-14T07:43:12.691Z,100710.30
2019-04-14T07:46:09.903Z,100719.86
2019-04-14T07:49:07.547Z,100710.88
2019-04-14T07:51:43.255Z,100711.95
2019-04-14T07:54:21.669Z,100712.65
2019-04-14T07:57:07.320Z,100702.12
2019-04-14T07:59:41.494Z,100708.83
2019-04-14T08:02:29.700Z,100712.22
2019-04-14T08:05:11.468Z,100703.37
2019-04-14T08:07:40.739Z,100708.97
2019-04-14T08:10:10.064Z,100710.77
2019-04-14T08:12:39.322Z,100711.79
2019-04-14T08:15:08.678Z,100713.08
2019-04-14T08:17:38.157Z,100712.23
2019-04-14T08:20:10.336Z,100713.36
2019-04-14T08:22:41.284Z,100713.52
2019-04-14T08:25:12.077Z,100716.02
2019-04-14T08:27:44.510Z,100719.83
2019-04-14T08:30:15.932Z,100722.31
2019-04-14T08:32:46.929Z,100718.30
2019-04-14T08:35:17.148Z,100727.55
2019-04-14T08:37:49.764Z,100729.56
2019-04-14T08:40:22.381Z,100729.73
2019-04-14T08:43:10.263Z,100734.69
2019-04-14T08:45:48.878Z,100739.30
2019-04-14T08:48:39.147Z,100735.34
2019-04-14T08:51:21.307Z,100738.88
2019-04-14T08:54:06.666Z,100738.69
2019-04-14T08:57:01.397Z,100743.48
2019-04-14T08:59:55.458Z,100740.86
2019-04-14T09:03:04.770Z,100747.19
2019-04-14T09:06:13.780Z,100758.83
2019-04-14T09:09:10.154Z,100754.39
2019-04-14T09:11:48.666Z,100762.73
2019-04-14T09:14:30.784Z,100767.02
2019-04-14T09:17:04.089Z,100766.70
2019-04-14T09:19:38.561Z,100772.64
2019-04-14T09:22:08.830Z,100774.31
2019-04-14T09:24:43.084Z,100773.09
2019-04-14T09:27:16.699Z,100776.02
2019-04-14T09:29:46.563Z,100778.36
2019-04-14T09:32:23.554Z,100780.75
2019-04-14T09:34:54.846Z,100783.69
2019-04-14T09:37:26.644Z,100781.19
2019-04-14T09:39:58.217Z,100788.95
2019-04-14T09:42:32.448Z,100786.55
2019-04-14T09:45:05.045Z,100790.53
2019-04-14T09:47:36.352Z,100794.67
2019-04-14T09:50:08.750Z,100799.09
2019-04-14T09:52:41.377Z,100802.07
2019-04-14T09:55:13.503Z,100800.50
2019-04-14T09:57:45.884Z,100804.74
2019-04-14T10:00:20.479Z,100806.82
2019-04-14T10:02:56.396Z,100811.55
2019-04-14T10:05:27.204Z,100809.62
2019-04-14T10:08:01.871Z,100813.28
2019-04-14T10:10:34.984Z,100818.12
2019-04-14T10:13:06.626Z,100819.17
2019-04-14T10:15:38.177Z,100821.50
2019-04-14T10:18:11.950Z,100819.55
2019-04-14T10:20:42.910Z,100818.13
2019-04-14T10:23:13.863Z,100818.16
2019-04-14T10:25:45.570Z,100820.94
2019-04-14T10:28:18.083Z,100819.91
2019-04-14T10:30:50.169Z,100816.31
2019-04-14T10:33:25.111Z,100823.31
2019-04-14T10:35:57.933Z,100821.02
2019-04-14T10:38:29.696Z,100824.59
2019-04-14T10:41:02.479Z,100827.20
2019-04-14T10:43:35.917Z,100830.55
2019-04-14T10:46:09.612Z,100828.98
2019-04-14T10:48:42.356Z,100834.88
2019-04-14T10:51:35.102Z,100825.38
2019-04-14T10:54:09.583Z,100830.04
2019-04-14T10:56:44.764Z,100834.55
2019-04-14T10:59:16.201Z,100828.81
2019-04-14T11:01:50.738Z,100830.72
2019-04-14T11:04:23.029Z,100826.19
2019-04-14T11:07:23.281Z,100833.59
2019-04-14T11:09:55.570Z,100837.13
2019-04-14T11:12:29.503Z,100835.19
2019-04-14T11:15:01.018Z,100828.88
2019-04-14T11:17:35.807Z,100839.02
2019-04-14T11:20:07.031Z,100835.47
2019-04-14T11:22:42.256Z,100839.09
2019-04-14T11:25:23.721Z,100840.79
2019-04-14T11:27:57.607Z,100843.00
2019-04-14T11:30:29.915Z,100836.56
2019-04-14T11:33:20.359Z,100832.11
2019-04-14T11:36:11.238Z,100825.81
2019-04-14T11:39:01.886Z,100828.17
2019-04-14T11:41:34.014Z,100827.59
2019-04-14T11:44:06.010Z,100826.72
2019-04-14T11:46:42.077Z,100826.24
2019-04-14T11:49:13.972Z,100827.97
2019-04-14T11:52:11.362Z,100827.30
2019-04-14T11:54:42.374Z,100824.16
2019-04-14T11:57:32.971Z,100830.33
2019-04-14T12:00:47.713Z,100829.11
2019-04-14T12:03:36.103Z,100826.60
2019-04-14T12:06:34.052Z,100826.73
2019-04-14T12:09:22.673Z,100825.05
2019-04-14T12:12:10.296Z,100823.98
2019-04-14T12:14:42.525Z,100822.66
2019-04-14T12:17:21.014Z,100824.80
2019-04-14T12:19:55.825Z,100826.41
2019-04-14T12:22:28.175Z,100819.72
2019-04-14T12:25:00.303Z,100829.06
2019-04-14T12:27:31.744Z,100822.27
2019-04-14T12:30:04.105Z,100815.44
2019-04-14T12:32:35.480Z,100824.02
2019-04-14T12:35:10.540Z,100824.78
2019-04-14T12:37:42.371Z,100823.97
2019-04-14T12:40:18.322Z,100818.98
2019-04-14T12:43:07.363Z,100823.73
2019-04-14T12:45:57.293Z,100815.41
2019-04-14T12:48:46.987Z,100810.63
2019-04-14T12:51:28.411Z,100817.84
2019-04-14T12:53:59.960Z,100816.53
2019-04-14T12:56:33.473Z,100817.30
2019-04-14T12:59:19.378Z,100819.00
2019-04-14T13:02:11.094Z,100830.95
2019-04-14T13:04:43.623Z,100818.95
2019-04-14T13:07:17.281Z,100809.48
2019-04-14T13:09:49.491Z,100808.30
2019-04-14T13:12:21.705Z,100811.59
2019-04-14T13:15:03.059Z,100799.32
2019-04-14T13:17:36.770Z,100799.04
2019-04-14T13:20:11.268Z,100799.49
2019-04-14T13:22:42.177Z,100786.66
2019-04-14T13:25:14.201Z,100786.66
2019-04-14T13:27:47.588Z,100796.89
2019-04-14T13:30:20.295Z,100792.23
2019-04-14T13:32:55.781Z,100795.27
2019-04-14T13:35:26.906Z,100784.78
2019-04-14T13:37:59.551Z,100787.84
2019-04-14T13:40:30.521Z,100786.84
2019-04-14T13:43:01.787Z,100778.85
2019-04-14T13:45:35.645Z,100776.06
2019-04-14T13:48:07.060Z,100777.56
2019-04-14T13:50:39.355Z,100783.53
2019-04-14T13:53:12.775Z,100777.28
2019-04-14T13:55:50.071Z,100774.20
2019-04-14T13:58:24.602Z,100771.93
2019-04-14T14:00:59.774Z,100779.23
2019-04-14T14:03:33.408Z,100770.56
2019-04-14T14:06:05.223Z,100778.70
2019-04-14T14:08:37.056Z,100772.78
2019-04-14T14:11:15.573Z,100775.48
2019-04-14T14:14:01.272Z,100775.92
2019-04-14T14:16:55.090Z,100769.96
2019-04-14T14:19:46.049Z,100758.02
2019-04-14T14:22:40.606Z,100754.38
2019-04-14T14:25:22.132Z,100758.41
2019-04-14T14:27:54.076Z,100749.39
2019-04-14T14:30:24.901Z,100750.16
2019-04-14T14:32:57.943Z,100747.31
2019-04-14T14:35:29.978Z,100747.86
2019-04-14T14:38:04.977Z,100745.85
2019-04-14T14:40:36.744Z,100748.33
2019-04-14T14:43:07.703Z,100745.89
2019-04-14T14:46:06.887Z,100747.55
2019-04-14T14:48:45.124Z,100749.32
2019-04-14T14:51:46.553Z,100743.84
2019-04-14T14:54:18.152Z,100739.13
2019-04-14T14:56:49.394Z,100734.55
2019-04-14T14:59:19.778Z,100733.39
2019-04-14T15:01:50.705Z,100731.72
2019-04-14T15:04:25.438Z,100736.34
2019-04-14T15:06:59.671Z,100743.54
2019-04-14T15:09:31.090Z,100739.23
2019-04-14T15:12:01.454Z,100730.91
2019-04-14T15:14:39.212Z,100738.46
2019-04-14T15:17:17.856Z,100740.69
2019-04-14T15:19:50.106Z,100742.63
2019-04-14T15:22:22.323Z,100740.69
2019-04-14T15:24:55.660Z,100744.89
2019-04-14T15:27:26.922Z,100740.27
2019-04-14T15:29:57.737Z,100747.03
2019-04-14T15:32:29.942Z,100744.03
2019-04-14T15:35:01.411Z,100737.19
2019-04-14T15:37:33.029Z,100742.39
2019-04-14T15:40:07.308Z,100746.71
2019-04-14T15:42:38.910Z,100749.94
2019-04-14T15:45:14.752Z,100756.46
2019-04-14T15:47:48.209Z,100754.11
2019-04-14T15:50:21.871Z,100752.79
2019-04-14T15:52:57.591Z,100757.92
2019-04-14T15:55:28.041Z,100761.02
2019-04-14T15:58:19.737Z,100763.27
2019-04-14T16:01:17.805Z,100767.30
2019-04-14T16:03:58.279Z,100768.68
2019-04-14T16:06:53.690Z,100774.77
2019-04-14T16:10:05.985Z,100772.89
2019-04-14T16:12:43.839Z,100776.02
2019-04-14T16:15:41.977Z,100777.89
2019-04-14T16:18:30.842Z,100776.78
2019-04-14T16:21:04.193Z,100777.69
2019-04-14T16:23:35.472Z,100790.20
2019-04-14T16:26:23.307Z,100791.07
2019-04-14T16:29:09.004Z,100792.58
2019-04-14T16:31:56.283Z,100791.12
2019-04-14T16:34:31.434Z,100796.45
2019-04-14T16:37:02.426Z,100788.89
2019-04-14T16:39:34.831Z,100792.39
2019-04-14T16:42:05.130Z,100792.39
2019-04-14T16:44:39.326Z,100805.88
2019-04-14T16:47:11.718Z,100808.23
2019-04-14T16:49:52.920Z,100814.13
2019-04-14T16:52:49.284Z,100811.84
2019-04-14T16:55:29.576Z,100817.89
2019-04-14T16:58:29.919Z,100816.30
2019-04-14T17:01:04.489Z,100818.92
2019-04-14T17:03:38.743Z,100821.29
2019-04-14T17:06:11.214Z,100819.22
2019-04-14T17:08:42.869Z,100816.59
2019-04-14T17:11:16.862Z,100821.03
2019-04-14T17:13:54.107Z,100833.16
2019-04-14T17:16:45.154Z,100828.98
2019-04-14T17:19:45.795Z,100834.89
2019-04-14T17:22:32.271Z,100836.49
2019-04-14T17:25:11.635Z,100845.11
2019-04-14T17:28:11.279Z,100842.17
2019-04-14T17:31:16.829Z,100859.30
2019-04-14T17:33:57.807Z,100852.16
2019-04-14T17:36:53.094Z,100852.86
2019-04-14T17:39:45.801Z,100849.24
2019-04-14T17:42:47.237Z,100856.28
2019-04-14T17:45:35.899Z,100858.88
2019-04-14T17:48:18.640Z,100862.34
2019-04-14T17:51:08.543Z,100870.45
2019-04-14T17:53:53.669Z,100874.64
2019-04-14T17:57:05.713Z,100882.67
2019-04-14T17:59:48.854Z,100882.39
2019-04-14T18:02:37.347Z,100882.86
2019-04-14T18:05:38.474Z,100890.16
2019-04-14T18:08:35.438Z,100883.33
2019-04-14T18:11:17.713Z,100884.28
2019-04-14T18:14:16.558Z,100886.92
2019-04-14T18:17:18.051Z,100895.33
2019-04-14T18:20:00.254Z,100899.86
2019-04-14T18:22:31.475Z,100894.13
2019-04-14T18:25:22.470Z,100892.56
2019-04-14T18:28:10.746Z,100890.81
2019-04-14T18:30:54.618Z,100902.16
2019-04-14T18:33:47.684Z,100899.98
2019-04-14T18:36:47.108Z,100905.06
2019-04-14T18:39:35.266Z,100907.98
2019-04-14T18:42:30.883Z,100913.55
2019-04-14T18:45:10.771Z,100914.05
2019-04-14T18:48:09.428Z,100921.35
2019-04-14T18:51:02.586Z,100919.71
2019-04-14T18:53:53.855Z,100927.82
2019-04-14T18:57:03.055Z,100925.83
2019-04-14T18:59:49.928Z,100936.64
2019-04-14T19:02:24.851Z,100941.22
2019-04-14T19:04:56.234Z,100947.52
2019-04-14T19:07:28.246Z,100955.47
2019-04-14T19:10:01.480Z,100947.18
2019-04-14T19:12:55.812Z,100956.20
2019-04-14T19:15:42.328Z,100957.39
2019-04-14T19:18:17.060Z,100956.27
2019-04-14T19:20:55.606Z,100976.54
2019-04-14T19:23:28.211Z,100972.52
2019-04-14T19:26:00.309Z,100971.52
2019-04-14T19:28:33.803Z,100978.47
2019-04-14T19:31:43.730Z,100982.64
2019-04-14T19:34:25.519Z,100981.79
2019-04-14T19:37:19.200Z,100982.52
2019-04-14T19:39:50.555Z,100987.41
2019-04-14T19:42:22.399Z,100996.55
2019-04-14T19:45:02.291Z,101004.01
2019-04-14T19:47:36.792Z,101000.19
2019-04-14T19:50:13.570Z,100998.73
2019-04-14T19:53:32.955Z,101002.87
2019-04-14T19:56:07.255Z,101009.04
2019-04-14T19:58:45.256Z,101007.79
2019-04-14T20:01:16.781Z,101011.20
2019-04-14T20:03:51.650Z,101016.95
2019-04-14T20:06:24.288Z,101015.90
2019-04-14T20:08:56.328Z,101016.63
2019-04-14T20:11:29.043Z,101018.38
2019-04-14T20:14:05.267Z,101021.92
2019-04-14T20:17:46.917Z,101027.42
2019-04-14T20:20:37.960Z,101038.09
2019-04-14T20:23:21.316Z,101032.81
2019-04-14T20:26:16.879Z,101044.42
2019-04-14T20:28:56.810Z,101047.80
2019-04-14T20:31:43.467Z,101053.30
2019-04-14T20:34:16.543Z,101051.92
2019-04-14T20:36:48.975Z,101051.30
2019-04-14T20:39:21.418Z,101055.24
2019-04-14T20:41:54.085Z,101056.06
2019-04-14T20:44:24.027Z,101049.71
2019-04-14T20:46:57.062Z,101045.30
2019-04-14T20:49:33.249Z,101035.47
2019-04-14T20:52:05.094Z,101032.03
2019-04-14T20:54:38.250Z,101028.11
2019-04-14T20:57:10.705Z,101023.82
2019-04-14T20:59:52.610Z,101020.72
2019-04-14T21:02:47.950Z,101013.25
2019-04-14T21:05:55.642Z,101017.64
2019-04-14T21:08:43.988Z,101008.67
2019-04-14T21:11:22.495Z,101014.36
2019-04-14T21:14:30.213Z,101019.41
2019-04-14T21:17:12.014Z,101009.66
2019-04-14T21:20:04.261Z,101011.73
2019-04-14T21:22:47.017Z,101007.39
2019-04-14T21:25:37.535Z,101011.69
2019-04-14T21:28:15.322Z,101010.83
2019-04-14T21:31:11.647Z,101014.56
2019-04-14T21:34:01.272Z,101010.28
2019-04-14T21:36:43.973Z,101012.73
2019-04-14T21:39:31.203Z,101019.03
2019-04-14T21:42:06.850Z,101021.09
2019-04-14T21:44:39.683Z,101022.69
2019-04-14T21:47:09.842Z,101029.63
2019-04-14T21:49:44.286Z,101032.86
2019-04-14T21:52:39.235Z,101033.24
2019-04-14T21:55:12.381Z,101034.67
2019-04-14T21:57:51.137Z,101028.36
2019-04-14T22:00:57.476Z,101011.52
2019-04-14T22:03:52.454Z,101007.98
2019-04-14T22:06:30.716Z,100998.41
2019-04-14T22:09:05.875Z,101001.23
2019-04-14T22:11:38.077Z,101010.77
2019-04-14T22:14:23.123Z,101010.80
2019-04-14T22:16:54.671Z,101003.83
2019-04-14T22:19:25.893Z,100998.41
2019-04-14T22:21:59.955Z,101003.95
2019-04-14T22:24:31.549Z,101005.94
2019-04-14T22:27:04.521Z,101005.34
2019-04-14T22:29:38.561Z,101010.30
2019-04-14T22:32:11.377Z,101009.46
2019-04-14T22:34:43.246Z,101006.08
2019-04-14T22:37:13.380Z,101007.86
2019-04-14T22:39:44.405Z,101005.11
2019-04-14T22:42:17.450Z,101002.16
2019-04-14T22:44:50.687Z,101004.27
2019-04-14T22:47:22.411Z,101003.91
2019-04-14T22:49:53.965Z,101011.12
2019-04-14T22:52:26.443Z,101006.52
2019-04-14T22:55:00.466Z,101018.97
2019-04-14T22:57:34.859Z,101014.64
2019-04-14T23:00:42.641Z,101010.98
2019-04-14T23:03:36.989Z,101010.14
2019-04-14T23:06:17.402Z,101006.45
2019-04-14T23:08:53.432Z,101003.06
2019-04-14T23:11:57.444Z,101008.88
2019-04-14T23:14:53.395Z,100999.61
2019-04-14T23:17:53.797Z,101001.66
2019-04-14T23:20:42.659Z,101007.20
2019-04-14T23:23:28.232Z,101016.28
2019-04-14T23:25:58.484Z,101020.11
2019-04-14T23:28:31.107Z,101018.77
2019-04-14T23:31:21.142Z,101026.59
2019-04-14T23:33:55.119Z,101024.27
2019-04-14T23:36:32.012Z,101025.88
2019-04-14T23:39:06.359Z,101026.02
2019-04-14T23:41:42.595Z,101032.89
2019-04-14T23:44:14.748Z,101026.59
2019-04-14T23:46:46.362Z,101026.31
2019-04-14T23:49:19.049Z,101028.09
2019-04-14T23:51:51.468Z,101029.98
2019-04-14T23:54:24.987Z,101024.34
2019-04-14T23:57:05.270Z,101032.19
2019-04-14T23:59:34.064Z,101028.77
